createdAt,value
2019-03-22T00:02:31.011Z,75.89
2019-03-22T00:05:01.499Z,75.82
2019-03-22T00:07:31.919Z,75.76
2019-03-22T00:10:02.450Z,75.31
2019-03-22T00:12:34.548Z,75.21
2019-03-22T00:15:05.813Z,75.29
2019-03-22T00:17:36.628Z,75.24
2019-03-22T00:20:08.806Z,75.44
2019-03-22T00:22:39.546Z,75.58
2019-03-22T00:25:10.266Z,75.69
2019-03-22T00:27:41.638Z,75.94
2019-03-22T00:30:12.207Z,76.11
2019-03-22T00:32:43.690Z,76.10
2019-03-22T00:35:14.255Z,76.09
2019-03-22T00:37:44.719Z,75.82
2019-03-22T00:40:15.593Z,75.82
2019-03-22T00:42:46.000Z,75.97
2019-03-22T00:45:16.555Z,76.09
2019-03-22T00:47:47.019Z,76.26
2019-03-22T00:50:17.701Z,76.39
2019-03-22T00:52:48.285Z,76.40
2019-03-22T00:55:18.787Z,76.80
2019-03-22T00:57:49.289Z,76.68
2019-03-22T01:00:19.815Z,76.60
2019-03-22T01:02:50.418Z,76.29
2019-03-22T01:05:21.035Z,76.38
2019-03-22T01:07:51.513Z,76.44
2019-03-22T01:10:22.112Z,76.83
2019-03-22T01:12:52.618Z,76.84
2019-03-22T01:15:23.155Z,76.55
2019-03-22T01:17:53.538Z,76.65
2019-03-22T01:20:24.034Z,76.63
2019-03-22T01:22:54.474Z,76.78
2019-03-22T01:25:24.971Z,76.86
2019-03-22T01:27:55.840Z,76.80
2019-03-22T01:30:26.362Z,76.82
2019-03-22T01:32:57.171Z,76.51
2019-03-22T01:35:27.689Z,76.55
2019-03-22T01:37:58.458Z,76.80
2019-03-22T01:40:28.973Z,76.95
2019-03-22T01:42:59.309Z,77.12
2019-03-22T01:45:29.947Z,77.34
2019-03-22T01:48:00.529Z,77.63
2019-03-22T01:50:31.001Z,77.81
2019-03-22T01:53:01.404Z,77.56
2019-03-22T01:55:32.096Z,77.62
2019-03-22T01:58:02.606Z,77.64
2019-03-22T02:00:33.128Z,77.71
2019-03-22T02:03:03.640Z,77.82
2019-03-22T02:05:34.315Z,78.01
2019-03-22T02:08:05.901Z,78.03
2019-03-22T02:10:36.745Z,78.04
2019-03-22T02:13:07.501Z,77.83
2019-03-22T02:15:37.991Z,77.61
2019-03-22T02:18:08.759Z,77.63
2019-03-22T02:20:39.289Z,77.75
2019-03-22T02:23:09.759Z,77.65
2019-03-22T02:25:40.261Z,77.50
2019-03-22T02:28:10.782Z,78.07
2019-03-22T02:30:41.302Z,78.28
2019-03-22T02:33:12.046Z,78.34
2019-03-22T02:35:42.822Z,78.12
2019-03-22T02:38:13.321Z,78.18
2019-03-22T02:40:43.909Z,78.38
2019-03-22T02:43:15.085Z,78.40
2019-03-22T02:45:45.511Z,78.54
2019-03-22T02:48:16.058Z,78.56
2019-03-22T02:50:47.138Z,78.52
2019-03-22T02:53:17.520Z,78.49
2019-03-22T02:55:47.968Z,78.51
2019-03-22T02:58:20.980Z,78.36
2019-03-22T03:00:51.268Z,78.21
2019-03-22T03:03:22.095Z,78.20
2019-03-22T03:05:52.609Z,78.20
2019-03-22T03:08:23.074Z,78.29
2019-03-22T03:10:53.623Z,78.34
2019-03-22T03:13:24.094Z,78.38
2019-03-22T03:15:54.514Z,78.47
2019-03-22T03:18:24.920Z,78.48
2019-03-22T03:20:55.910Z,78.48
2019-03-22T03:23:26.318Z,78.38
2019-03-22T03:25:57.038Z,78.25
2019-03-22T03:28:36.671Z,78.24
2019-03-22T03:31:00.341Z,78.48
2019-03-22T03:33:30.746Z,78.36
2019-03-22T03:36:01.230Z,78.32
2019-03-22T03:38:31.635Z,78.30
2019-03-22T03:41:02.387Z,78.51
2019-03-22T03:43:32.903Z,78.67
2019-03-22T03:46:03.327Z,78.61
2019-03-22T03:48:33.832Z,78.77
2019-03-22T03:51:04.684Z,78.29
2019-03-22T03:53:35.365Z,78.61
2019-03-22T03:56:05.900Z,78.75
2019-03-22T03:58:51.181Z,78.79
2019-03-22T04:01:08.477Z,78.72
2019-03-22T04:03:39.334Z,78.63
2019-03-22T04:06:09.848Z,78.41
2019-03-22T04:08:40.320Z,78.31
2019-03-22T04:11:11.168Z,78.27
2019-03-22T04:13:41.654Z,78.39
2019-03-22T04:16:12.853Z,78.62
2019-03-22T04:18:43.265Z,78.64
2019-03-22T04:21:14.404Z,78.06
2019-03-22T04:23:46.172Z,78.10
2019-03-22T04:26:16.588Z,78.30
2019-03-22T04:28:47.010Z,78.76
2019-03-22T04:31:17.444Z,78.83
2019-03-22T04:33:48.229Z,78.83
2019-03-22T04:36:18.673Z,78.87
2019-03-22T04:38:49.057Z,78.95
2019-03-22T04:41:19.869Z,78.91
2019-03-22T04:43:50.358Z,78.83
2019-03-22T04:46:21.523Z,79.03
2019-03-22T04:48:53.063Z,79.08
2019-03-22T04:51:24.865Z,78.41
2019-03-22T04:54:01.015Z,78.61
2019-03-22T04:56:34.726Z,78.50
2019-03-22T04:59:18.382Z,78.64
2019-03-22T05:01:43.079Z,78.68
2019-03-22T05:04:15.440Z,78.64
2019-03-22T05:06:47.452Z,78.91
2019-03-22T05:09:19.349Z,79.08
2019-03-22T05:11:50.570Z,78.87
2019-03-22T05:14:22.712Z,78.95
2019-03-22T05:16:55.070Z,79.38
2019-03-22T05:19:28.864Z,79.73
2019-03-22T05:22:02.325Z,79.90
2019-03-22T05:24:35.370Z,79.80
2019-03-22T05:27:07.147Z,79.73
2019-03-22T05:29:40.295Z,79.61
2019-03-22T05:32:12.626Z,79.07
2019-03-22T05:34:43.187Z,78.97
2019-03-22T05:37:13.689Z,78.91
2019-03-22T05:39:44.663Z,79.12
2019-03-22T05:42:15.497Z,79.26
2019-03-22T05:44:46.219Z,79.28
2019-03-22T05:47:16.654Z,78.98
2019-03-22T05:49:47.616Z,79.19
2019-03-22T05:52:18.221Z,79.21
2019-03-22T05:54:49.236Z,79.57
2019-03-22T05:57:19.778Z,79.56
2019-03-22T05:59:50.185Z,79.36
2019-03-22T06:02:21.159Z,79.41
2019-03-22T06:04:51.608Z,79.52
2019-03-22T06:07:22.442Z,79.80
2019-03-22T06:09:52.866Z,80.04
2019-03-22T06:12:23.288Z,79.99
2019-03-22T06:14:53.735Z,80.08
2019-03-22T06:17:25.358Z,79.83
2019-03-22T06:19:56.086Z,79.96
2019-03-22T06:22:26.535Z,80.10
2019-03-22T06:24:57.263Z,80.13
2019-03-22T06:27:27.773Z,80.17
2019-03-22T06:29:58.570Z,80.29
2019-03-22T06:32:29.087Z,80.47
2019-03-22T06:34:59.576Z,80.86
2019-03-22T06:37:30.368Z,81.03
2019-03-22T06:40:00.904Z,81.07
2019-03-22T06:42:31.787Z,81.12
2019-03-22T06:45:02.252Z,81.02
2019-03-22T06:47:33.155Z,80.95
2019-03-22T06:50:03.838Z,81.02
2019-03-22T06:52:35.020Z,81.05
2019-03-22T06:55:05.702Z,81.13
2019-03-22T06:57:36.460Z,81.13
2019-03-22T07:00:07.622Z,81.10
2019-03-22T07:02:38.269Z,81.00
2019-03-22T07:05:09.299Z,81.03
2019-03-22T07:07:40.407Z,80.74
2019-03-22T07:10:11.236Z,80.67
2019-03-22T07:12:41.868Z,80.72
2019-03-22T07:15:12.542Z,80.43
2019-03-22T07:17:43.043Z,80.36
2019-03-22T07:20:13.754Z,80.45
2019-03-22T07:22:44.269Z,80.59
2019-03-22T07:25:15.000Z,80.63
2019-03-22T07:27:45.509Z,80.67
2019-03-22T07:30:19.107Z,80.60
2019-03-22T07:32:48.314Z,80.41
2019-03-22T07:35:18.823Z,80.23
2019-03-22T07:37:49.214Z,80.06
2019-03-22T07:40:19.721Z,79.95
2019-03-22T07:42:50.161Z,79.81
2019-03-22T07:45:20.694Z,79.65
2019-03-22T07:47:51.386Z,79.46
2019-03-22T07:50:21.928Z,78.98
2019-03-22T07:52:52.393Z,78.69
2019-03-22T07:55:22.910Z,78.63
2019-03-22T07:57:53.377Z,78.57
2019-03-22T08:00:30.652Z,78.37
2019-03-22T08:02:56.227Z,78.71
2019-03-22T08:05:26.808Z,78.87
2019-03-22T08:07:57.302Z,78.79
2019-03-22T08:10:27.810Z,78.78
2019-03-22T08:12:59.076Z,78.92
2019-03-22T08:15:33.771Z,78.65
2019-03-22T08:18:05.072Z,78.09
2019-03-22T08:20:36.546Z,77.11
2019-03-22T08:23:26.680Z,77.20
2019-03-22T08:25:57.318Z,77.12
2019-03-22T08:28:27.855Z,76.86
2019-03-22T08:30:58.353Z,76.48
2019-03-22T08:33:28.992Z,76.28
2019-03-22T08:36:01.953Z,76.21
2019-03-22T08:38:32.695Z,75.85
2019-03-22T08:41:03.436Z,75.96
2019-03-22T08:43:33.949Z,75.85
2019-03-22T08:46:04.525Z,75.69
2019-03-22T08:48:34.981Z,75.62
2019-03-22T08:51:05.719Z,75.65
2019-03-22T08:53:36.144Z,75.79
2019-03-22T08:56:06.671Z,75.67
2019-03-22T08:58:37.149Z,75.86
2019-03-22T09:01:07.662Z,75.87
2019-03-22T09:03:38.781Z,75.75
2019-03-22T09:06:09.387Z,75.38
2019-03-22T09:08:40.102Z,75.19
2019-03-22T09:11:10.603Z,75.25
2019-03-22T09:13:41.007Z,75.08
2019-03-22T09:16:11.493Z,74.93
2019-03-22T09:18:42.057Z,74.75
2019-03-22T09:21:12.601Z,74.65
2019-03-22T09:23:43.655Z,74.69
2019-03-22T09:26:15.229Z,74.34
2019-03-22T09:28:45.786Z,74.01
2019-03-22T09:31:16.243Z,73.50
2019-03-22T09:33:46.785Z,73.56
2019-03-22T09:36:17.375Z,73.35
2019-03-22T09:38:48.395Z,73.02
2019-03-22T09:41:19.006Z,72.61
2019-03-22T09:43:49.705Z,72.63
2019-03-22T09:46:20.229Z,72.90
2019-03-22T09:48:50.761Z,72.30
2019-03-22T09:51:21.158Z,72.30
2019-03-22T09:53:51.848Z,71.87
2019-03-22T09:56:22.333Z,71.81
2019-03-22T09:58:53.208Z,71.88
2019-03-22T10:01:24.381Z,70.97
2019-03-22T10:03:55.078Z,71.21
2019-03-22T10:06:25.610Z,70.69
2019-03-22T10:08:56.067Z,70.93
2019-03-22T10:11:26.885Z,71.23
2019-03-22T10:13:57.586Z,70.37
2019-03-22T10:16:28.114Z,69.63
2019-03-22T10:18:59.173Z,69.19
2019-03-22T10:21:29.733Z,69.79
2019-03-22T10:24:00.327Z,67.86
2019-03-22T10:26:30.868Z,66.01
2019-03-22T10:29:01.539Z,65.40
2019-03-22T10:31:37.380Z,64.69
2019-03-22T10:34:04.310Z,64.78
2019-03-22T10:36:34.905Z,63.04
2019-03-22T10:39:08.517Z,62.60
2019-03-22T10:41:39.036Z,61.53
2019-03-22T10:44:09.600Z,61.89
2019-03-22T10:46:40.119Z,60.32
2019-03-22T10:49:10.929Z,60.91
2019-03-22T10:51:55.811Z,59.87
2019-03-22T10:54:14.926Z,59.78
2019-03-22T10:56:45.825Z,58.19
2019-03-22T10:59:16.591Z,57.35
2019-03-22T11:02:02.261Z,57.53
2019-03-22T11:04:19.773Z,57.21
2019-03-22T11:06:50.470Z,56.03
2019-03-22T11:09:21.529Z,56.42
2019-03-22T11:11:52.046Z,55.33
2019-03-22T11:14:22.897Z,56.62
2019-03-22T11:16:53.445Z,54.66
2019-03-22T11:19:24.056Z,54.42
2019-03-22T11:21:54.602Z,54.38
2019-03-22T11:24:25.108Z,54.25
2019-03-22T11:26:55.685Z,53.72
2019-03-22T11:29:26.189Z,52.28
2019-03-22T11:31:56.726Z,52.33
2019-03-22T11:34:27.211Z,52.21
2019-03-22T11:36:58.058Z,51.66
2019-03-22T11:39:28.482Z,51.62
2019-03-22T11:41:58.871Z,50.87
2019-03-22T11:44:29.709Z,49.57
2019-03-22T11:47:00.560Z,50.53
2019-03-22T11:49:30.989Z,50.81
2019-03-22T11:52:01.515Z,49.75
2019-03-22T11:54:33.375Z,48.88
2019-03-22T11:57:04.473Z,50.11
2019-03-22T11:59:35.267Z,48.28
2019-03-22T12:02:06.202Z,46.84
2019-03-22T12:04:37.138Z,46.64
2019-03-22T12:07:07.684Z,42.44
2019-03-22T12:09:38.104Z,42.04
2019-03-22T12:12:08.717Z,43.12
2019-03-22T12:14:39.168Z,42.46
2019-03-22T12:17:11.577Z,42.93
2019-03-22T12:19:43.547Z,41.62
2019-03-22T12:22:14.682Z,39.17
2019-03-22T12:24:45.176Z,39.63
2019-03-22T12:27:15.580Z,39.94
2019-03-22T12:29:46.171Z,39.31
2019-03-22T12:32:16.613Z,39.55
2019-03-22T12:34:47.131Z,38.40
2019-03-22T12:37:17.733Z,37.95
2019-03-22T12:39:48.847Z,38.04
2019-03-22T12:42:19.703Z,37.29
2019-03-22T12:44:50.270Z,37.29
2019-03-22T12:47:21.150Z,38.33
2019-03-22T12:49:51.692Z,36.54
2019-03-22T12:52:22.518Z,36.57
2019-03-22T12:54:53.342Z,36.41
2019-03-22T12:57:23.852Z,35.12
2019-03-22T12:59:54.395Z,34.86
2019-03-22T13:02:24.877Z,34.59
2019-03-22T13:04:55.353Z,34.13
2019-03-22T13:07:25.853Z,35.00
2019-03-22T13:09:56.913Z,34.44
2019-03-22T13:12:28.283Z,30.32
2019-03-22T13:14:58.721Z,30.32
2019-03-22T13:17:29.280Z,30.67
2019-03-22T13:19:59.807Z,30.49
2019-03-22T13:22:30.129Z,30.69
2019-03-22T13:25:01.632Z,28.36
2019-03-22T13:27:32.061Z,29.86
2019-03-22T13:30:02.523Z,29.29
2019-03-22T13:32:33.779Z,29.06
2019-03-22T13:35:04.919Z,28.18
2019-03-22T13:37:35.349Z,27.87
2019-03-22T13:40:07.917Z,27.79
2019-03-22T13:42:38.695Z,27.77
2019-03-22T13:45:09.315Z,27.53
2019-03-22T13:47:39.706Z,26.10
2019-03-22T13:50:11.523Z,27.42
2019-03-22T13:52:42.327Z,26.15
2019-03-22T13:55:12.922Z,26.94
2019-03-22T13:57:43.367Z,26.04
2019-03-22T14:00:14.428Z,25.13
2019-03-22T14:02:44.811Z,26.00
2019-03-22T14:05:15.310Z,25.85
2019-03-22T14:07:45.808Z,25.35
2019-03-22T14:10:28.349Z,25.19
2019-03-22T14:12:59.184Z,25.32
2019-03-22T14:15:30.556Z,25.44
2019-03-22T14:18:01.562Z,24.94
2019-03-22T14:20:32.212Z,25.28
2019-03-22T14:23:02.787Z,26.02
2019-03-22T14:25:33.258Z,25.83
2019-03-22T14:28:04.414Z,26.29
2019-03-22T14:30:34.993Z,27.35
2019-03-22T14:33:13.271Z,27.75
2019-03-22T14:35:37.808Z,27.74
2019-03-22T14:38:08.542Z,28.46
2019-03-22T14:40:39.032Z,28.70
2019-03-22T14:43:09.848Z,28.91
2019-03-22T14:45:40.338Z,31.31
2019-03-22T14:48:11.104Z,31.86
2019-03-22T14:50:41.459Z,30.87
2019-03-22T14:53:11.974Z,31.17
2019-03-22T14:55:42.543Z,30.53
2019-03-22T14:58:13.043Z,30.13
2019-03-22T15:00:43.805Z,30.82
2019-03-22T15:03:29.437Z,31.56
2019-03-22T15:05:59.963Z,31.73
2019-03-22T15:08:30.856Z,32.09
2019-03-22T15:11:01.371Z,30.61
2019-03-22T15:13:35.921Z,30.77
2019-03-22T15:16:33.190Z,31.41
2019-03-22T15:19:21.566Z,30.80
2019-03-22T15:22:15.760Z,33.37
2019-03-22T15:25:14.348Z,33.15
2019-03-22T15:28:03.766Z,30.90
2019-03-22T15:30:52.134Z,31.29
2019-03-22T15:33:40.637Z,30.67
2019-03-22T15:36:26.392Z,31.15
2019-03-22T15:39:25.354Z,31.49
2019-03-22T15:41:56.045Z,31.49
2019-03-22T15:44:26.762Z,31.79
2019-03-22T15:46:57.250Z,31.44
2019-03-22T15:49:27.844Z,31.98
2019-03-22T15:52:00.737Z,32.35
2019-03-22T15:54:31.421Z,32.23
2019-03-22T15:57:01.965Z,31.54
2019-03-22T15:59:32.470Z,31.08
2019-03-22T16:02:02.988Z,31.03
2019-03-22T16:04:34.889Z,31.15
2019-03-22T16:07:05.512Z,31.58
2019-03-22T16:09:36.216Z,31.45
2019-03-22T16:12:06.932Z,31.53
2019-03-22T16:14:37.573Z,31.65
2019-03-22T16:17:08.117Z,32.77
2019-03-22T16:19:38.596Z,32.66
2019-03-22T16:22:09.816Z,33.24
2019-03-22T16:24:40.762Z,33.86
2019-03-22T16:27:12.473Z,33.86
2019-03-22T16:29:43.382Z,33.95
2019-03-22T16:32:13.872Z,34.24
2019-03-22T16:34:44.796Z,34.32
2019-03-22T16:37:15.356Z,34.52
2019-03-22T16:39:46.162Z,34.06
2019-03-22T16:42:16.657Z,33.56
2019-03-22T16:44:48.216Z,34.37
2019-03-22T16:47:19.175Z,34.52
2019-03-22T16:49:51.113Z,35.12
2019-03-22T16:52:22.160Z,35.52
2019-03-22T16:54:52.828Z,35.49
2019-03-22T16:57:23.316Z,36.13
2019-03-22T16:59:54.248Z,36.24
2019-03-22T17:02:25.209Z,37.20
2019-03-22T17:04:56.395Z,37.93
2019-03-22T17:07:26.942Z,38.89
2019-03-22T17:09:57.787Z,39.39
2019-03-22T17:12:28.611Z,38.81
2019-03-22T17:14:59.248Z,39.20
2019-03-22T17:17:29.982Z,39.16
2019-03-22T17:20:01.189Z,39.79
2019-03-22T17:22:31.689Z,40.03
2019-03-22T17:25:02.270Z,40.27
2019-03-22T17:27:33.845Z,40.36
2019-03-22T17:30:05.133Z,41.58
2019-03-22T17:32:35.921Z,42.13
2019-03-22T17:35:06.675Z,43.55
2019-03-22T17:37:37.152Z,43.55
2019-03-22T17:40:08.104Z,45.12
2019-03-22T17:42:38.704Z,45.18
2019-03-22T17:45:10.294Z,45.75
2019-03-22T17:47:41.035Z,45.40
2019-03-22T17:50:12.454Z,45.30
2019-03-22T17:52:42.947Z,45.60
2019-03-22T17:55:13.831Z,46.24
2019-03-22T17:57:45.378Z,46.85
2019-03-22T18:00:18.519Z,46.97
2019-03-22T18:02:49.003Z,47.03
2019-03-22T18:05:20.096Z,47.20
2019-03-22T18:07:50.666Z,47.67
2019-03-22T18:10:21.155Z,48.04
2019-03-22T18:12:52.796Z,47.99
2019-03-22T18:15:23.650Z,48.72
2019-03-22T18:17:54.366Z,48.90
2019-03-22T18:20:25.275Z,49.25
2019-03-22T18:22:56.011Z,49.61
2019-03-22T18:25:26.411Z,49.31
2019-03-22T18:27:57.275Z,49.13
2019-03-22T18:30:27.681Z,49.26
2019-03-22T18:32:58.187Z,49.68
2019-03-22T18:35:28.880Z,49.67
2019-03-22T18:38:01.019Z,49.69
2019-03-22T18:40:31.516Z,50.11
2019-03-22T18:43:02.037Z,50.02
2019-03-22T18:45:33.439Z,50.17
2019-03-22T18:48:04.081Z,50.66
2019-03-22T18:50:34.603Z,51.11
2019-03-22T18:53:05.087Z,50.06
2019-03-22T18:55:35.640Z,50.59
2019-03-22T18:58:06.187Z,50.69
2019-03-22T19:00:36.793Z,50.93
2019-03-22T19:03:07.294Z,51.61
2019-03-22T19:05:37.839Z,51.66
2019-03-22T19:08:08.338Z,51.02
2019-03-22T19:10:38.859Z,51.44
2019-03-22T19:13:09.669Z,51.82
2019-03-22T19:15:40.719Z,51.70
2019-03-22T19:18:11.137Z,52.01
2019-03-22T19:20:41.739Z,52.25
2019-03-22T19:23:12.365Z,52.14
2019-03-22T19:25:42.879Z,52.63
2019-03-22T19:28:13.666Z,52.52
2019-03-22T19:30:44.509Z,52.65
2019-03-22T19:33:14.948Z,52.56
2019-03-22T19:35:45.625Z,52.58
2019-03-22T19:38:16.210Z,52.94
2019-03-22T19:40:47.024Z,53.51
2019-03-22T19:43:17.463Z,53.28
2019-03-22T19:45:48.949Z,52.98
2019-03-22T19:48:19.458Z,53.33
2019-03-22T19:50:49.961Z,53.45
2019-03-22T19:53:20.749Z,53.68
2019-03-22T19:55:51.391Z,53.52
2019-03-22T19:58:23.375Z,53.48
2019-03-22T20:00:55.020Z,53.81
2019-03-22T20:03:25.579Z,53.85
2019-03-22T20:05:56.004Z,54.10
2019-03-22T20:08:26.438Z,54.32
2019-03-22T20:10:57.022Z,54.84
2019-03-22T20:13:27.494Z,54.85
2019-03-22T20:15:57.968Z,54.96
2019-03-22T20:18:28.528Z,55.27
2019-03-22T20:20:59.126Z,55.47
2019-03-22T20:23:29.541Z,55.65
2019-03-22T20:25:59.941Z,54.77
2019-03-22T20:28:30.953Z,55.01
2019-03-22T20:31:01.461Z,54.33
2019-03-22T20:33:33.978Z,54.66
2019-03-22T20:36:05.094Z,54.49
2019-03-22T20:38:35.931Z,54.63
2019-03-22T20:41:06.718Z,55.01
2019-03-22T20:43:37.388Z,54.78
2019-03-22T20:46:07.860Z,54.71
2019-03-22T20:48:38.527Z,53.71
2019-03-22T20:51:08.976Z,54.01
2019-03-22T20:53:39.724Z,53.45
2019-03-22T20:56:12.718Z,52.84
2019-03-22T20:58:43.197Z,52.75
2019-03-22T21:01:13.617Z,52.86
2019-03-22T21:03:44.097Z,52.92
2019-03-22T21:06:14.615Z,52.47
2019-03-22T21:08:46.355Z,52.62
2019-03-22T21:11:16.840Z,52.93
2019-03-22T21:13:47.637Z,52.43
2019-03-22T21:16:17.945Z,52.51
2019-03-22T21:18:48.589Z,53.53
2019-03-22T21:21:20.286Z,53.66
2019-03-22T21:23:50.705Z,54.02
2019-03-22T21:26:21.192Z,54.88
2019-03-22T21:28:52.051Z,55.09
2019-03-22T21:31:22.652Z,55.25
2019-03-22T21:33:53.213Z,54.78
2019-03-22T21:36:23.931Z,55.07
2019-03-22T21:38:54.293Z,55.37
2019-03-22T21:41:24.705Z,55.77
2019-03-22T21:43:55.417Z,55.43
2019-03-22T21:46:26.020Z,55.83
2019-03-22T21:48:56.444Z,56.30
2019-03-22T21:51:26.967Z,56.55
2019-03-22T21:53:57.742Z,56.60
2019-03-22T21:56:28.675Z,56.76
2019-03-22T21:58:59.085Z,56.91
2019-03-22T22:01:31.676Z,57.23
2019-03-22T22:04:01.854Z,56.50
2019-03-22T22:06:32.372Z,56.77
2019-03-22T22:09:04.967Z,57.42
2019-03-22T22:11:37.037Z,57.58
2019-03-22T22:14:07.802Z,57.89
2019-03-22T22:16:38.953Z,58.35
2019-03-22T22:19:09.495Z,58.32
2019-03-22T22:21:39.989Z,58.49
2019-03-22T22:24:11.127Z,57.95
2019-03-22T22:26:41.887Z,58.08
2019-03-22T22:29:12.415Z,58.46
2019-03-22T22:31:43.147Z,58.45
2019-03-22T22:34:15.084Z,58.19
2019-03-22T22:36:45.601Z,58.28
2019-03-22T22:39:16.011Z,58.46
2019-03-22T22:41:46.646Z,59.15
2019-03-22T22:44:18.225Z,59.42
2019-03-22T22:46:50.411Z,59.66
2019-03-22T22:49:20.959Z,59.98
2019-03-22T22:51:51.631Z,60.06
2019-03-22T22:54:22.054Z,60.19
2019-03-22T22:56:52.835Z,60.20
2019-03-22T22:59:23.352Z,60.89
2019-03-22T23:01:53.868Z,59.48
2019-03-22T23:04:24.386Z,58.95
2019-03-22T23:06:55.397Z,59.04
2019-03-22T23:09:25.912Z,59.39
2019-03-22T23:11:56.497Z,59.53
2019-03-22T23:14:28.765Z,59.67
2019-03-22T23:16:59.274Z,60.32
2019-03-22T23:19:30.043Z,60.71
2019-03-22T23:22:00.518Z,60.43
2019-03-22T23:24:30.967Z,60.94
2019-03-22T23:27:01.454Z,61.20
2019-03-22T23:29:31.929Z,61.28
2019-03-22T23:32:02.695Z,61.70
2019-03-22T23:34:33.166Z,62.18
2019-03-22T23:37:04.006Z,62.37
2019-03-22T23:39:34.517Z,62.28
2019-03-22T23:42:05.011Z,62.25
2019-03-22T23:44:35.553Z,62.50
2019-03-22T23:47:06.378Z,62.87
2019-03-22T23:49:37.531Z,63.10
2019-03-22T23:52:08.262Z,62.86
2019-03-22T23:54:38.762Z,63.11
2019-03-22T23:57:10.537Z,63.51
2019-03-22T23:59:41.414Z,64.12
